Time;durP1;ratioP1;P1;durP2;ratioP2;P2;SDS_P1;SDS_P2;PMS_P1;PMS_P2;Temp;Humidity;BMP_temperature;BMP_pressure;BME280_temperature;BME280_humidity;BME280_pressure;Samples;Min_cycle;Max_cycle;Signal;HPM_P1;HPM_P2
2023/10/01 00:00:55;;;;;;;14.43;3.72;;;;;;;;;;5075093;28;20041;-58
2023/10/01 00:03:21;;;;;;;13.20;3.97;;;;;;;;;;5078385;28;20040;-58
2023/10/01 00:05:48;;;;;;;10.80;4.00;;;;;;;;;;5072240;28;20043;-58
2023/10/01 00:08:14;;;;;;;17.15;4.60;;;;;;;;;;5081953;28;20513;-58
2023/10/01 00:10:41;;;;;;;12.50;3.40;;;;;;;;;;5084034;28;20052;-57
2023/10/01 00:13:08;;;;;;;13.07;3.97;;;;;;;;;;5078175;28;20134;-58
2023/10/01 00:15:34;;;;;;;19.67;4.50;;;;;;;;;;5082372;28;20124;-57
2023/10/01 00:18:00;;;;;;;13.57;4.25;;;;;;;;;;5081161;28;20036;-58
2023/10/01 00:20:28;;;;;;;18.98;4.53;;;;;;;;;;5086640;28;20052;-58
2023/10/01 00:23:05;;;;;;;9.98;3.72;;;;;;;;;;5076196;28;20060;-57
2023/10/01 00:25:38;;;;;;;14.68;4.80;;;;;;;;;;5082794;28;20040;-57
2023/10/01 00:28:04;;;;;;;17.90;4.85;;;;;;;;;;5086638;28;20511;-58
2023/10/01 00:30:33;;;;;;;19.17;5.00;;;;;;;;;;5084099;28;20048;-57
2023/10/01 00:33:00;;;;;;;15.15;5.35;;;;;;;;;;5073611;28;20052;-58
2023/10/01 00:35:26;;;;;;;15.63;4.18;;;;;;;;;;5071034;28;20045;-57
2023/10/01 00:37:53;;;;;;;17.90;5.15;;;;;;;;;;5081153;28;20071;-57
2023/10/01 00:40:19;;;;;;;18.30;5.80;;;;;;;;;;5074126;28;20412;-58
2023/10/01 00:42:46;;;;;;;14.18;6.13;;;;;;;;;;5077424;28;20086;-57
2023/10/01 00:45:14;;;;;;;20.38;5.75;;;;;;;;;;5073664;28;20048;-57
2023/10/01 00:47:41;;;;;;;18.70;5.80;;;;;;;;;;5077590;28;20111;-57
2023/10/01 00:50:08;;;;;;;14.73;5.32;;;;;;;;;;5073990;28;20436;-57
2023/10/01 00:52:37;;;;;;;10.52;5.72;;;;;;;;;;5077729;28;20067;-57
2023/10/01 00:55:03;;;;;;;17.38;5.55;;;;;;;;;;5077616;28;20143;-57
2023/10/01 00:57:29;;;;;;;17.75;5.57;;;;;;;;;;5076857;28;20123;-58
2023/10/01 00:59:55;;;;;;;18.80;6.03;;;;;;;;;;5072227;28;20060;-57
2023/10/01 01:02:22;;;;;;;20.40;6.05;;;;;;;;;;5086428;28;20123;-58
2023/10/01 01:05:05;;;;;;;19.33;6.45;;;;;;;;;;5081707;28;20055;-57
2023/10/01 01:07:36;;;;;;;13.63;5.72;;;;;;;;;;5078725;28;20125;-57
2023/10/01 01:10:03;;;;;;;18.23;6.00;;;;;;;;;;5083798;28;20529;-58
2023/10/01 01:12:30;;;;;;;18.40;6.45;;;;;;;;;;5074263;28;20079;-57
2023/10/01 01:14:58;;;;;;;20.13;6.15;;;;;;;;;;5077555;28;20044;-58
2023/10/01 01:17:27;;;;;;;17.73;6.88;;;;;;;;;;5074389;28;20048;-58
2023/10/01 01:19:55;;;;;;;15.85;5.75;;;;;;;;;;5084148;28;20054;-57
2023/10/01 01:22:30;;;;;;;22.20;6.55;;;;;;;;;;5088453;28;20040;-57
2023/10/01 01:24:57;;;;;;;23.38;7.15;;;;;;;;;;5078699;28;20123;-58
2023/10/01 01:27:30;;;;;;;21.05;6.88;;;;;;;;;;5077142;28;20487;-58
2023/10/01 01:29:57;;;;;;;19.30;6.70;;;;;;;;;;5079012;28;20040;-57
2023/10/01 01:32:24;;;;;;;15.77;6.80;;;;;;;;;;5071891;28;20074;-57
2023/10/01 01:34:54;;;;;;;18.00;6.80;;;;;;;;;;5077217;28;20055;-57
2023/10/01 01:37:30;;;;;;;26.08;7.45;;;;;;;;;;5076893;28;20470;-58
2023/10/01 01:39:57;;;;;;;16.73;6.80;;;;;;;;;;5076745;28;20051;-58
2023/10/01 01:42:24;;;;;;;27.33;7.38;;;;;;;;;;5071949;28;20048;-57
2023/10/01 01:47:49;;;;;;;14.43;6.60;;;;;;;;;;5069263;28;20063;-58
2023/10/01 01:50:18;;;;;;;16.95;6.20;;;;;;;;;;5074715;28;20062;-58
2023/10/01 01:52:49;;;;;;;20.40;7.40;;;;;;;;;;5076582;28;20079;-58
2023/10/01 01:55:27;;;;;;;21.05;7.82;;;;;;;;;;5075808;28;20039;-57
2023/10/01 02:00:37;;;;;;;26.10;9.63;;;;;;;;;;5082895;28;20127;-57
2023/10/01 02:03:14;;;;;;;18.25;7.50;;;;;;;;;;5082697;28;20051;-57
2023/10/01 02:05:41;;;;;;;15.32;7.47;;;;;;;;;;5074898;28;20464;-57
2023/10/01 02:08:23;;;;;;;16.90;9.02;;;;;;;;;;5074754;28;20424;-58
2023/10/01 02:10:54;;;;;;;17.83;8.57;;;;;;;;;;5079287;28;20048;-58
2023/10/01 02:13:24;;;;;;;18.70;8.52;;;;;;;;;;5077364;28;20044;-57
2023/10/01 02:15:51;;;;;;;19.77;9.52;;;;;;;;;;5072159;28;20036;-57
2023/10/01 02:18:17;;;;;;;23.30;9.15;;;;;;;;;;5084240;28;20048;-58
2023/10/01 02:20:44;;;;;;;15.52;8.93;;;;;;;;;;5076194;28;20115;-57
2023/10/01 02:23:13;;;;;;;19.75;9.32;;;;;;;;;;5078233;28;20048;-58
2023/10/01 02:25:45;;;;;;;17.60;9.30;;;;;;;;;;5079089;28;20044;-57
2023/10/01 02:28:15;;;;;;;20.00;10.20;;;;;;;;;;5079990;28;20404;-58
2023/10/01 02:30:44;;;;;;;22.52;9.82;;;;;;;;;;5073990;28;20052;-58
2023/10/01 02:33:19;;;;;;;23.40;10.73;;;;;;;;;;5067518;28;20070;-58
2023/10/01 02:35:48;;;;;;;22.48;10.25;;;;;;;;;;5076831;28;20396;-58
2023/10/01 02:41:02;;;;;;;20.35;10.00;;;;;;;;;;5086380;28;20480;-58
2023/10/01 02:43:35;;;;;;;23.15;10.10;;;;;;;;;;5073887;28;20130;-58
2023/10/01 02:46:07;;;;;;;20.98;9.98;;;;;;;;;;5089876;28;20040;-57
2023/10/01 02:48:34;;;;;;;21.75;11.18;;;;;;;;;;5076693;28;20051;-58
2023/10/01 02:51:16;;;;;;;22.33;10.25;;;;;;;;;;5076014;28;20035;-58
2023/10/01 02:53:42;;;;;;;22.98;11.27;;;;;;;;;;5081225;28;20063;-57
2023/10/01 02:56:16;;;;;;;23.38;11.43;;;;;;;;;;5069951;28;20045;-57
2023/10/01 02:58:49;;;;;;;27.05;11.77;;;;;;;;;;5079572;28;20048;-58
2023/10/01 03:01:17;;;;;;;22.17;12.05;;;;;;;;;;5079689;28;20040;-58
2023/10/01 03:03:43;;;;;;;23.88;11.90;;;;;;;;;;5072198;28;20444;-58
2023/10/01 03:06:09;;;;;;;24.00;13.38;;;;;;;;;;5076234;28;20048;-58
2023/10/01 03:11:16;;;;;;;26.00;12.70;;;;;;;;;;5075691;28;20093;-58
2023/10/01 03:13:46;;;;;;;22.33;11.63;;;;;;;;;;5075881;28;20040;-58
2023/10/01 03:19:12;;;;;;;24.23;12.20;;;;;;;;;;5078536;28;20036;-58
2023/10/01 03:24:25;;;;;;;21.00;11.55;;;;;;;;;;5087216;28;20115;-57
2023/10/01 03:26:57;;;;;;;23.10;12.25;;;;;;;;;;5075796;28;20078;-58
2023/10/01 03:29:34;;;;;;;20.83;11.98;;;;;;;;;;5077086;28;20065;-57
2023/10/01 03:32:27;;;;;;;24.13;12.60;;;;;;;;;;5072896;28;20060;-58
2023/10/01 03:34:52;;;;;;;24.95;11.85;;;;;;;;;;5066189;28;20041;-57
2023/10/01 03:37:19;;;;;;;22.00;12.32;;;;;;;;;;5073040;28;20480;-57
2023/10/01 03:39:52;;;;;;;24.33;12.68;;;;;;;;;;5073482;28;20048;-57
2023/10/01 03:42:18;;;;;;;27.65;12.82;;;;;;;;;;5076445;28;21488;-58
2023/10/01 03:47:34;;;;;;;23.60;11.60;;;;;;;;;;5076195;28;20097;-57
2023/10/01 03:50:01;;;;;;;20.65;11.82;;;;;;;;;;5071955;28;20068;-58
2023/10/01 03:52:29;;;;;;;26.48;12.00;;;;;;;;;;5074572;28;20114;-57
2023/10/01 03:57:25;;;;;;;20.10;12.15;;;;;;;;;;5077689;28;20134;-57
2023/10/01 03:59:57;;;;;;;23.55;12.30;;;;;;;;;;5073480;28;20135;-58
2023/10/01 04:05:30;;;;;;;29.65;12.90;;;;;;;;;;5080235;28;20044;-58
2023/10/01 04:07:59;;;;;;;19.35;11.30;;;;;;;;;;5079151;28;20052;-57
2023/10/01 04:12:54;;;;;;;22.63;11.63;;;;;;;;;;5082834;28;20067;-57
2023/10/01 04:15:29;;;;;;;28.92;11.68;;;;;;;;;;5089384;28;20113;-57
2023/10/01 04:20:48;;;;;;;21.02;10.27;;;;;;;;;;5077039;28;20098;-58
2023/10/01 04:23:21;;;;;;;;;;;;;;;;;;5078470;28;20150;-57
2023/10/01 04:25:51;;;;;;;22.15;9.75;;;;;;;;;;5085091;28;19926;-57
2023/10/01 04:28:21;;;;;;;24.55;9.90;;;;;;;;;;5091499;28;20093;-58
2023/10/01 04:30:51;;;;;;;21.77;10.60;;;;;;;;;;5083188;28;20067;-57
2023/10/01 04:33:18;;;;;;;23.17;11.57;;;;;;;;;;5091935;28;20096;-58
2023/10/01 04:35:58;;;;;;;23.17;10.65;;;;;;;;;;5081212;28;20426;-58
2023/10/01 04:38:32;;;;;;;24.10;11.10;;;;;;;;;;5076147;28;20054;-57
2023/10/01 04:41:03;;;;;;;26.52;10.98;;;;;;;;;;5070489;28;20127;-57
2023/10/01 04:43:34;;;;;;;17.02;9.93;;;;;;;;;;5082390;28;20115;-57
2023/10/01 04:46:08;;;;;;;31.00;11.13;;;;;;;;;;5076684;28;20471;-58
2023/10/01 04:48:39;;;;;;;17.17;10.65;;;;;;;;;;5077605;28;20044;-56
2023/10/01 04:51:09;;;;;;;19.48;10.45;;;;;;;;;;5080703;28;20552;-56
2023/10/01 04:53:35;;;;;;;27.00;11.82;;;;;;;;;;5082593;28;20134;-57
2023/10/01 04:56:05;;;;;;;18.60;9.95;;;;;;;;;;5080745;28;20116;-57
2023/10/01 04:58:38;;;;;;;24.30;11.10;;;;;;;;;;5071938;28;20040;-57
2023/10/01 05:01:10;;;;;;;22.10;11.00;;;;;;;;;;5080482;28;20044;-57
2023/10/01 05:03:40;;;;;;;18.17;10.38;;;;;;;;;;5092382;28;20488;-57
2023/10/01 05:06:14;;;;;;;23.45;11.30;;;;;;;;;;5092799;28;20063;-57
2023/10/01 05:08:42;;;;;;;24.60;12.02;;;;;;;;;;5081230;28;20036;-58
2023/10/01 05:11:12;;;;;;;23.65;11.02;;;;;;;;;;5082767;28;20048;-58
2023/10/01 05:13:42;;;;;;;21.05;11.57;;;;;;;;;;5079243;28;20149;-58
2023/10/01 05:16:14;;;;;;;22.42;11.80;;;;;;;;;;5083075;28;20044;-57
2023/10/01 05:18:45;;;;;;;27.10;12.57;;;;;;;;;;5087090;28;20036;-57
2023/10/01 05:21:21;;;;;;;24.80;12.15;;;;;;;;;;5092750;28;20044;-58
2023/10/01 05:23:47;;;;;;;25.75;11.95;;;;;;;;;;5079509;28;20094;-57
2023/10/01 05:26:20;;;;;;;20.38;12.02;;;;;;;;;;5089364;28;20364;-58
2023/10/01 05:28:48;;;;;;;24.88;11.88;;;;;;;;;;5076835;28;20056;-58
2023/10/01 05:31:24;;;;;;;26.98;12.68;;;;;;;;;;5075772;28;20044;-57
2023/10/01 05:33:58;;;;;;;27.55;12.25;;;;;;;;;;5087308;28;20048;-57
2023/10/01 05:36:26;;;;;;;25.30;12.70;;;;;;;;;;5080362;28;20044;-57
2023/10/01 05:38:53;;;;;;;26.15;12.85;;;;;;;;;;5091527;28;20052;-57
2023/10/01 05:41:32;;;;;;;24.38;12.43;;;;;;;;;;5092434;28;20080;-57
2023/10/01 05:44:01;;;;;;;20.90;12.27;;;;;;;;;;5078243;28;20052;-57
2023/10/01 05:46:28;;;;;;;25.50;11.73;;;;;;;;;;5080137;28;20044;-58
2023/10/01 05:49:00;;;;;;;30.13;14.20;;;;;;;;;;5080584;28;20047;-58
2023/10/01 05:51:36;;;;;;;24.50;13.27;;;;;;;;;;5067956;28;20442;-57
2023/10/01 05:54:02;;;;;;;33.20;14.93;;;;;;;;;;5074192;28;20060;-58
2023/10/01 05:56:36;;;;;;;27.02;14.48;;;;;;;;;;5091596;28;20054;-58
2023/10/01 05:59:06;;;;;;;31.42;15.23;;;;;;;;;;5070599;28;20049;-58
2023/10/01 06:01:33;;;;;;;27.20;13.45;;;;;;;;;;5077147;28;20104;-58
2023/10/01 06:04:00;;;;;;;36.38;15.13;;;;;;;;;;5069552;28;20041;-58
2023/10/01 06:06:27;;;;;;;28.08;13.82;;;;;;;;;;5066639;28;20468;-58
2023/10/01 06:08:59;;;;;;;27.50;14.43;;;;;;;;;;5063582;28;20040;-58
2023/10/01 06:11:38;;;;;;;32.63;13.90;;;;;;;;;;5084904;28;20546;-58
2023/10/01 06:14:07;;;;;;;28.27;13.82;;;;;;;;;;5064298;28;20396;-58
2023/10/01 06:16:40;;;;;;;31.13;14.95;;;;;;;;;;5083040;28;20040;-58
2023/10/01 06:19:11;;;;;;;24.58;13.60;;;;;;;;;;5061106;28;20048;-58
2023/10/01 06:21:39;;;;;;;36.53;15.88;;;;;;;;;;5070659;28;20048;-58
2023/10/01 06:24:07;;;;;;;34.60;14.30;;;;;;;;;;5086084;28;20055;-57
2023/10/01 06:26:37;;;;;;;30.98;15.65;;;;;;;;;;5090092;28;20411;-57
2023/10/01 06:29:07;;;;;;;40.33;16.48;;;;;;;;;;5086869;28;20048;-58
2023/10/01 06:31:52;;;;;;;30.27;15.15;;;;;;;;;;5082155;28;20052;-57
2023/10/01 06:34:23;;;;;;;28.08;14.93;;;;;;;;;;5085282;28;20044;-58
2023/10/01 06:36:58;;;;;;;25.48;13.70;;;;;;;;;;5089684;28;20047;-58
2023/10/01 06:39:24;;;;;;;33.65;14.65;;;;;;;;;;5091240;28;20096;-58
2023/10/01 06:42:17;;;;;;;29.77;13.63;;;;;;;;;;5062075;28;20080;-57
2023/10/01 06:44:40;;;;;;;30.67;15.07;;;;;;;;;;5072422;28;20043;-58
2023/10/01 06:47:14;;;;;;;38.47;15.45;;;;;;;;;;5091079;28;20119;-57
2023/10/01 06:49:57;;;;;;;42.50;15.90;;;;;;;;;;5074958;28;20036;-58
2023/10/01 06:52:29;;;;;;;39.72;14.48;;;;;;;;;;5084932;28;20048;-58
2023/10/01 06:54:56;;;;;;;34.38;14.50;;;;;;;;;;5089991;28;20048;-58
2023/10/01 06:57:27;;;;;;;38.22;15.07;;;;;;;;;;5080334;28;20622;-58
2023/10/01 06:59:56;;;;;;;31.50;13.25;;;;;;;;;;5090750;28;20058;-58
2023/10/01 07:02:26;;;;;;;29.48;13.73;;;;;;;;;;5072931;28;20097;-58
2023/10/01 07:04:56;;;;;;;35.83;13.18;;;;;;;;;;5073869;28;20036;-58
2023/10/01 07:07:28;;;;;;;28.20;12.98;;;;;;;;;;5071359;28;20432;-58
2023/10/01 07:09:56;;;;;;;32.30;12.75;;;;;;;;;;5065749;28;20389;-58
2023/10/01 07:12:25;;;;;;;30.23;13.00;;;;;;;;;;5072640;28;20232;-58
2023/10/01 07:14:51;;;;;;;33.25;12.30;;;;;;;;;;5083947;28;20040;-58
2023/10/01 07:17:19;;;;;;;31.23;11.32;;;;;;;;;;5074633;28;20116;-57
2023/10/01 07:19:59;;;;;;;30.58;12.02;;;;;;;;;;5069950;28;20043;-58
2023/10/01 07:22:25;;;;;;;27.83;10.90;;;;;;;;;;5089955;28;20113;-58
2023/10/01 07:24:51;;;;;;;30.42;11.75;;;;;;;;;;5078950;28;20493;-58
2023/10/01 07:27:18;;;;;;;23.40;10.48;;;;;;;;;;5084853;28;20036;-57
2023/10/01 07:29:44;;;;;;;22.63;10.60;;;;;;;;;;5079520;28;20562;-58
2023/10/01 07:32:14;;;;;;;23.67;11.25;;;;;;;;;;5067087;28;20044;-58
2023/10/01 07:34:45;;;;;;;25.88;9.35;;;;;;;;;;5070254;28;20048;-58
2023/10/01 07:37:23;;;;;;;28.98;10.30;;;;;;;;;;5066358;28;20036;-58
2023/10/01 07:39:55;;;;;;;24.00;9.65;;;;;;;;;;5074472;28;20054;-58
2023/10/01 07:42:22;;;;;;;25.55;9.73;;;;;;;;;;5062216;28;20040;-57
2023/10/01 07:44:49;;;;;;;23.20;10.30;;;;;;;;;;5065822;28;20090;-58
2023/10/01 07:47:32;;;;;;;29.98;10.50;;;;;;;;;;5061800;28;20416;-57
2023/10/01 07:50:02;;;;;;;23.85;9.63;;;;;;;;;;5071042;28;20040;-58
2023/10/01 07:52:29;;;;;;;26.23;10.35;;;;;;;;;;5071466;28;20048;-58
2023/10/01 07:54:57;;;;;;;22.80;9.82;;;;;;;;;;5067707;28;20120;-58
2023/10/01 07:57:27;;;;;;;25.70;9.65;;;;;;;;;;5075490;28;20064;-58
2023/10/01 07:59:56;;;;;;;25.65;9.93;;;;;;;;;;5081956;28;20079;-58
2023/10/01 08:02:27;;;;;;;24.45;9.20;;;;;;;;;;5084906;28;20410;-58
2023/10/01 08:04:59;;;;;;;20.25;9.48;;;;;;;;;;5094005;28;20032;-59
2023/10/01 08:07:30;;;;;;;30.08;11.68;;;;;;;;;;5079702;28;20518;-59
2023/10/01 08:09:59;;;;;;;20.95;10.63;;;;;;;;;;5071802;28;20392;-58
2023/10/01 08:12:29;;;;;;;24.42;10.13;;;;;;;;;;5079031;28;20056;-59
2023/10/01 08:20:58;;;;;;;25.58;9.40;;;;;;;;;;5084916;28;20044;-58
2023/10/01 08:23:28;;;;;;;20.17;9.60;;;;;;;;;;5093901;28;20505;-58
2023/10/01 08:25:55;;;;;;;21.25;9.93;;;;;;;;;;5076025;28;20040;-59
2023/10/01 08:30:49;;;;;;;28.52;10.27;;;;;;;;;;5073377;28;20036;-58
2023/10/01 08:33:19;;;;;;;22.83;9.63;;;;;;;;;;5074447;28;20131;-59
2023/10/01 08:36:12;;;;;;;30.00;11.02;;;;;;;;;;5080950;28;20044;-59
2023/10/01 08:38:38;;;;;;;21.27;9.50;;;;;;;;;;5079426;28;20036;-59
2023/10/01 08:41:06;;;;;;;30.25;11.48;;;;;;;;;;5073253;28;20037;-58
2023/10/01 08:43:36;;;;;;;24.75;9.95;;;;;;;;;;5068640;28;20058;-59
2023/10/01 08:46:31;;;;;;;24.80;9.90;;;;;;;;;;5078348;28;20044;-58
2023/10/01 08:49:18;;;;;;;22.73;9.38;;;;;;;;;;5070696;28;20039;-59
2023/10/01 08:51:44;;;;;;;19.67;9.55;;;;;;;;;;5091141;28;20052;-59
2023/10/01 08:54:17;;;;;;;23.45;9.63;;;;;;;;;;5077795;28;20041;-59
2023/10/01 08:56:45;;;;;;;26.90;9.48;;;;;;;;;;5084143;28;20043;-58
2023/10/01 08:59:25;;;;;;;22.67;9.25;;;;;;;;;;5071212;28;20112;-59
2023/10/01 09:01:59;;;;;;;26.13;10.48;;;;;;;;;;5082524;28;20085;-59
2023/10/01 09:07:18;;;;;;;26.55;9.77;;;;;;;;;;5076014;28;20041;-58
2023/10/01 09:09:54;;;;;;;22.00;9.32;;;;;;;;;;5077957;28;20052;-58
2023/10/01 09:12:20;;;;;;;19.08;8.73;;;;;;;;;;5065407;28;20095;-58
2023/10/01 09:14:47;;;;;;;26.15;9.85;;;;;;;;;;5092990;28;20040;-58
2023/10/01 09:17:26;;;;;;;25.55;10.10;;;;;;;;;;5087875;28;20036;-58
2023/10/01 09:19:52;;;;;;;20.92;9.43;;;;;;;;;;5083449;28;20044;-58
2023/10/01 09:22:40;;;;;;;22.25;9.52;;;;;;;;;;5092614;28;20039;-57
2023/10/01 09:25:15;;;;;;;25.13;10.10;;;;;;;;;;5073163;28;20217;-57
2023/10/01 09:27:57;;;;;;;25.48;10.55;;;;;;;;;;5059202;28;20115;-57
2023/10/01 09:30:27;;;;;;;21.75;9.32;;;;;;;;;;5086616;28;20032;-58
2023/10/01 09:33:05;;;;;;;26.05;10.57;;;;;;;;;;5092426;28;20345;-57
2023/10/01 09:35:49;;;;;;;24.08;9.02;;;;;;;;;;5086650;28;20048;-57
2023/10/01 09:38:19;;;;;;;22.73;9.38;;;;;;;;;;5091865;28;20500;-57
2023/10/01 09:40:47;;;;;;;21.80;9.73;;;;;;;;;;5076484;28;20044;-57
2023/10/01 09:43:30;;;;;;;24.35;10.50;;;;;;;;;;5087709;28;20055;-57
2023/10/01 09:46:00;;;;;;;22.75;10.43;;;;;;;;;;5091393;28;20092;-57
2023/10/01 09:48:33;;;;;;;21.13;9.32;;;;;;;;;;5076218;28;20050;-57
2023/10/01 09:51:13;;;;;;;23.67;9.93;;;;;;;;;;5087512;28;20052;-57
2023/10/01 09:53:50;;;;;;;18.20;9.05;;;;;;;;;;5069089;28;20459;-57
2023/10/01 09:56:26;;;;;;;30.40;10.07;;;;;;;;;;5070900;28;20080;-57
2023/10/01 09:59:01;;;;;;;22.73;9.48;;;;;;;;;;5071977;28;20063;-58
2023/10/01 10:01:27;;;;;;;18.48;9.02;;;;;;;;;;5090503;28;20071;-57
2023/10/01 10:04:03;;;;;;;21.35;9.20;;;;;;;;;;5091969;28;20055;-57
2023/10/01 10:06:30;;;;;;;21.92;8.88;;;;;;;;;;5089854;28;20511;-57
2023/10/01 10:09:03;;;;;;;19.50;8.82;;;;;;;;;;5072785;28;20165;-57
2023/10/01 10:11:46;;;;;;;23.23;9.50;;;;;;;;;;5091291;28;21195;-57
2023/10/01 10:14:25;;;;;;;26.37;8.80;;;;;;;;;;5077534;28;20523;-57
2023/10/01 10:17:18;;;;;;;23.33;9.02;;;;;;;;;;5088992;28;20381;-57
2023/10/01 10:23:06;;;;;;;16.77;7.73;;;;;;;;;;5081822;28;20045;-57
2023/10/01 10:25:35;;;;;;;21.10;10.15;;;;;;;;;;5088735;28;20369;-58
2023/10/01 10:28:06;;;;;;;20.20;9.00;;;;;;;;;;5075916;28;20080;-57
2023/10/01 10:30:32;;;;;;;24.23;9.38;;;;;;;;;;5083205;28;20115;-58
2023/10/01 10:33:17;;;;;;;21.75;9.38;;;;;;;;;;5090547;28;20385;-57
2023/10/01 10:35:47;;;;;;;23.02;9.50;;;;;;;;;;5091104;28;20052;-57
2023/10/01 10:38:32;;;;;;;23.45;9.18;;;;;;;;;;5087807;28;20136;-57
2023/10/01 10:41:07;;;;;;;22.33;9.43;;;;;;;;;;5076490;28;20365;-58
2023/10/01 10:43:34;;;;;;;25.20;9.73;;;;;;;;;;5088616;28;20048;-57
2023/10/01 10:46:00;;;;;;;21.40;9.20;;;;;;;;;;5088501;28;20051;-57
2023/10/01 10:48:45;;;;;;;23.40;9.70;;;;;;;;;;5085780;28;20052;-57
2023/10/01 10:51:18;;;;;;;37.15;10.30;;;;;;;;;;5079819;28;20440;-57
2023/10/01 10:53:46;;;;;;;21.80;9.35;;;;;;;;;;5091046;28;20463;-57
2023/10/01 10:56:14;;;;;;;21.75;9.07;;;;;;;;;;5087582;28;20043;-57
2023/10/01 10:59:01;;;;;;;25.77;9.18;;;;;;;;;;5084836;28;20108;-57
2023/10/01 11:01:43;;;;;;;23.30;8.85;;;;;;;;;;5087315;28;20092;-58
2023/10/01 11:04:09;;;;;;;22.42;8.80;;;;;;;;;;5091226;28;20141;-57
2023/10/01 11:06:39;;;;;;;25.00;10.05;;;;;;;;;;5090611;28;20123;-58
2023/10/01 11:09:25;;;;;;;23.05;9.80;;;;;;;;;;5081582;28;20048;-57
2023/10/01 11:12:21;;;;;;;23.02;9.80;;;;;;;;;;5087096;28;20106;-58
2023/10/01 11:14:55;;;;;;;22.02;9.25;;;;;;;;;;5086152;28;20040;-57
2023/10/01 11:17:22;;;;;;;20.58;9.48;;;;;;;;;;5089931;28;20108;-57
2023/10/01 11:19:48;;;;;;;23.70;9.93;;;;;;;;;;5084536;28;20025;-57
2023/10/01 11:22:15;;;;;;;19.27;9.82;;;;;;;;;;5073589;28;20040;-57
2023/10/01 11:24:43;;;;;;;22.58;9.50;;;;;;;;;;5074534;28;20039;-58
2023/10/01 11:30:00;;;;;;;19.75;9.68;;;;;;;;;;5091505;28;20440;-57
2023/10/01 11:35:33;;;;;;;21.70;8.93;;;;;;;;;;5083031;28;20404;-57
2023/10/01 11:38:04;;;;;;;22.00;9.43;;;;;;;;;;5094067;28;20039;-57
2023/10/01 11:43:27;;;;;;;20.23;9.27;;;;;;;;;;5077443;28;20415;-57
2023/10/01 11:46:35;;;;;;;19.80;9.10;;;;;;;;;;5094667;28;20043;-57
2023/10/01 11:48:59;;;;;;;23.48;9.73;;;;;;;;;;5087115;28;20043;-57
2023/10/01 11:51:30;;;;;;;24.08;10.73;;;;;;;;;;5065808;28;20032;-57
2023/10/01 11:54:10;;;;;;;23.27;9.13;;;;;;;;;;5084910;28;20489;-57
2023/10/01 11:56:41;;;;;;;19.85;8.80;;;;;;;;;;5077485;28;20039;-58
2023/10/01 11:59:08;;;;;;;23.45;9.85;;;;;;;;;;5086947;28;20036;-58
2023/10/01 12:01:47;;;;;;;22.67;9.93;;;;;;;;;;5093836;28;20044;-57
2023/10/01 12:04:21;;;;;;;17.35;9.27;;;;;;;;;;5087910;28;20387;-57
2023/10/01 12:06:51;;;;;;;20.73;9.85;;;;;;;;;;5094216;28;20101;-58
2023/10/01 12:09:18;;;;;;;21.90;9.73;;;;;;;;;;5071211;28;20048;-57
2023/10/01 12:12:03;;;;;;;19.55;9.48;;;;;;;;;;5075190;28;20040;-57
2023/10/01 12:14:29;;;;;;;24.95;10.77;;;;;;;;;;5084634;28;20115;-58
2023/10/01 12:16:57;;;;;;;23.83;10.52;;;;;;;;;;5090623;28;20046;-58
2023/10/01 12:19:23;;;;;;;25.00;10.85;;;;;;;;;;5075073;28;20044;-58
2023/10/01 12:22:05;;;;;;;25.33;10.32;;;;;;;;;;5076912;28;20040;-58
2023/10/01 12:24:44;;;;;;;24.02;10.18;;;;;;;;;;5093967;28;20063;-57
2023/10/01 12:27:11;;;;;;;24.88;9.70;;;;;;;;;;5083223;28;20036;-58
2023/10/01 12:29:42;;;;;;;21.25;10.60;;;;;;;;;;5072237;28;20441;-57
2023/10/01 12:32:10;;;;;;;24.50;10.75;;;;;;;;;;5079879;28;20222;-57
2023/10/01 12:34:36;;;;;;;32.13;11.43;;;;;;;;;;5088796;28;20040;-57
2023/10/01 12:37:35;;;;;;;20.77;9.65;;;;;;;;;;5087320;28;20146;-57
2023/10/01 12:40:14;;;;;;;22.77;10.40;;;;;;;;;;5078485;28;20115;-57
2023/10/01 12:42:41;;;;;;;22.73;9.95;;;;;;;;;;5090352;28;20043;-58
2023/10/01 12:45:14;;;;;;;22.77;10.43;;;;;;;;;;5084344;28;20041;-57
2023/10/01 12:47:50;;;;;;;24.60;10.13;;;;;;;;;;5074851;28;20036;-58
2023/10/01 12:50:26;;;;;;;21.08;9.00;;;;;;;;;;5088563;28;20135;-58
2023/10/01 12:53:18;;;;;;;17.58;8.73;;;;;;;;;;5080556;28;20048;-58
2023/10/01 12:55:51;;;;;;;25.48;11.00;;;;;;;;;;5064844;28;20489;-62
2023/10/01 12:58:18;;;;;;;24.85;10.65;;;;;;;;;;5066383;28;20043;-57
2023/10/01 13:00:45;;;;;;;23.42;10.18;;;;;;;;;;5092352;28;20098;-57
2023/10/01 13:03:16;;;;;;;23.67;10.20;;;;;;;;;;5083191;28;20097;-57
2023/10/01 13:05:47;;;;;;;24.42;10.63;;;;;;;;;;5079521;28;20068;-57
2023/10/01 13:08:27;;;;;;;20.58;9.77;;;;;;;;;;5087913;28;20048;-57
2023/10/01 13:10:56;;;;;;;20.75;8.95;;;;;;;;;;5069700;28;20040;-57
2023/10/01 13:13:29;;;;;;;21.15;9.82;;;;;;;;;;5092646;28;20074;-57
2023/10/01 13:15:56;;;;;;;24.95;10.07;;;;;;;;;;5075303;28;20040;-57
2023/10/01 13:18:28;;;;;;;22.58;10.48;;;;;;;;;;5077770;28;20037;-57
2023/10/01 13:23:24;;;;;;;20.33;9.82;;;;;;;;;;5085482;28;20048;-57
2023/10/01 13:26:05;;;;;;;22.70;10.20;;;;;;;;;;5078855;28;20107;-57
2023/10/01 13:28:49;;;;;;;24.35;10.27;;;;;;;;;;5092571;28;20135;-57
2023/10/01 13:34:32;;;;;;;24.40;10.35;;;;;;;;;;5078460;28;20048;-57
2023/10/01 14:09:50;;;;;;;21.10;9.35;;;;;;;;;;5091912;28;20095;-57
2023/10/01 14:15:20;;;;;;;27.17;9.65;;;;;;;;;;5081588;28;20067;-57
2023/10/01 14:17:52;;;;;;;21.88;9.45;;;;;;;;;;5087640;28;20119;-57
2023/10/01 14:20:37;;;;;;;29.17;9.55;;;;;;;;;;5080057;28;20399;-57
2023/10/01 14:23:07;;;;;;;20.13;8.73;;;;;;;;;;5082078;28;20046;-57
2023/10/01 14:28:25;;;;;;;23.05;9.50;;;;;;;;;;5083815;28;20052;-57
2023/10/01 14:30:58;;;;;;;21.42;8.98;;;;;;;;;;5067814;28;20048;-57
2023/10/01 14:33:27;;;;;;;;;;;;;;;;;;5082870;28;20048;-57
2023/10/01 14:36:02;;;;;;;27.30;10.30;;;;;;;;;;5076973;28;20459;-58
2023/10/01 14:38:37;;;;;;;;;;;;;;;;;;5080338;28;20045;-57
2023/10/01 14:41:09;;;;;;;25.05;9.90;;;;;;;;;;5070130;28;20055;-57
2023/10/01 14:43:41;;;;;;;24.80;9.30;;;;;;;;;;5071031;28;20052;-57
2023/10/01 14:46:08;;;;;;;24.45;9.25;;;;;;;;;;5069700;28;20480;-57
2023/10/01 14:48:38;;;;;;;23.98;9.82;;;;;;;;;;5070785;28;20044;-57
2023/10/01 14:51:05;;;;;;;22.83;9.75;;;;;;;;;;5069618;28;20396;-57
2023/10/01 14:53:36;;;;;;;23.50;9.75;;;;;;;;;;5070072;28;20057;-57
2023/10/01 14:56:05;;;;;;;22.52;9.55;;;;;;;;;;5069948;28;20063;-57
2023/10/01 14:58:34;;;;;;;22.25;9.70;;;;;;;;;;5070676;28;20036;-57
2023/10/01 15:01:01;;;;;;;20.67;9.88;;;;;;;;;;5069838;28;20044;-57
2023/10/01 15:03:34;;;;;;;26.50;9.93;;;;;;;;;;5070533;28;20553;-57
2023/10/01 15:06:01;;;;;;;24.13;9.38;;;;;;;;;;5067972;28;20200;-61
2023/10/01 15:08:29;;;;;;;26.13;10.02;;;;;;;;;;5078591;28;20963;-57
2023/10/01 15:10:58;;;;;;;21.17;9.65;;;;;;;;;;5090884;28;20040;-58
2023/10/01 15:13:34;;;;;;;24.42;10.27;;;;;;;;;;5086570;28;20075;-57
2023/10/01 15:16:02;;;;;;;25.33;10.27;;;;;;;;;;5081656;28;20036;-58
2023/10/01 15:18:32;;;;;;;29.45;11.85;;;;;;;;;;5086715;28;20040;-58
2023/10/01 15:20:59;;;;;;;25.25;10.75;;;;;;;;;;5087199;28;20051;-58
2023/10/01 15:23:27;;;;;;;22.52;10.15;;;;;;;;;;5077037;28;20044;-58
2023/10/01 15:25:55;;;;;;;26.08;10.13;;;;;;;;;;5080483;28;20084;-58
2023/10/01 15:28:21;;;;;;;25.08;10.77;;;;;;;;;;5089779;28;20048;-57
2023/10/01 15:30:48;;;;;;;23.35;10.63;;;;;;;;;;5089071;28;20090;-58
2023/10/01 15:33:17;;;;;;;28.48;10.60;;;;;;;;;;5080458;28;20055;-57
2023/10/01 15:35:50;;;;;;;21.75;10.40;;;;;;;;;;5076164;28;20047;-58
2023/10/01 15:38:27;;;;;;;21.80;10.35;;;;;;;;;;5079477;28;20044;-58
2023/10/01 15:40:59;;;;;;;25.67;10.57;;;;;;;;;;5086587;28;20041;-58
2023/10/01 15:43:26;;;;;;;27.50;10.43;;;;;;;;;;5071929;28;20040;-58
2023/10/01 15:46:11;;;;;;;25.63;9.95;;;;;;;;;;5072494;28;20507;-58
2023/10/01 15:48:50;;;;;;;25.75;10.32;;;;;;;;;;5072512;28;20103;-58
2023/10/01 15:51:25;;;;;;;19.95;9.23;;;;;;;;;;5069944;28;20041;-58
2023/10/01 15:53:53;;;;;;;23.73;10.48;;;;;;;;;;5069751;28;20574;-58
2023/10/01 15:56:30;;;;;;;26.08;10.52;;;;;;;;;;5074030;28;20079;-57
2023/10/01 15:58:57;;;;;;;28.10;10.63;;;;;;;;;;5090349;28;20133;-58
2023/10/01 16:01:23;;;;;;;25.95;10.88;;;;;;;;;;5086900;28;20043;-58
2023/10/01 16:03:53;;;;;;;27.73;10.65;;;;;;;;;;5087193;28;20704;-58
2023/10/01 16:06:21;;;;;;;21.45;10.98;;;;;;;;;;5063744;28;20045;-58
2023/10/01 16:08:48;;;;;;;32.63;11.77;;;;;;;;;;5073399;28;20047;-58
2023/10/01 16:11:15;;;;;;;24.05;11.27;;;;;;;;;;5070678;28;20074;-58
2023/10/01 16:13:52;;;;;;;23.20;10.55;;;;;;;;;;5078116;28;20337;-58
2023/10/01 16:16:19;;;;;;;26.77;11.93;;;;;;;;;;5077482;28;20345;-58
2023/10/01 16:18:46;;;;;;;27.55;11.88;;;;;;;;;;5068915;28;20040;-57
2023/10/01 16:21:16;;;;;;;23.58;11.18;;;;;;;;;;5065635;28;20060;-58
2023/10/01 16:23:48;;;;;;;26.95;11.85;;;;;;;;;;5070942;28;20058;-58
2023/10/01 16:26:14;;;;;;;25.50;11.27;;;;;;;;;;5073676;28;20048;-58